createdAt,value
2018-05-03T00:04:30.054Z,99778
2018-05-03T00:09:32.319Z,99776
2018-05-03T00:14:34.011Z,99779
2018-05-03T00:19:36.251Z,99797
2018-05-03T00:24:37.784Z,99803
2018-05-03T00:29:39.349Z,99797
2018-05-03T00:34:40.894Z,99807
2018-05-03T00:39:43.112Z,99792
2018-05-03T00:44:44.647Z,99806
2018-05-03T00:49:46.907Z,99808
2018-05-03T00:54:48.433Z,99819
2018-05-03T00:59:49.955Z,99812
2018-05-03T01:04:51.505Z,99820
2018-05-03T01:09:53.026Z,99821
2018-05-03T01:14:54.558Z,99813
2018-05-03T01:19:56.883Z,99811
2018-05-03T01:24:58.534Z,99830
2018-05-03T01:30:00.935Z,99829
2018-05-03T01:35:15.787Z,99824
2018-05-03T01:40:25.150Z,99824
2018-05-03T01:45:27.499Z,99834
2018-05-03T01:50:28.996Z,99836
2018-05-03T01:55:31.313Z,99835
2018-05-03T02:00:32.848Z,99844
2018-05-03T02:05:35.267Z,99850
2018-05-03T02:10:36.814Z,99858
2018-05-03T02:15:39.039Z,99855
2018-05-03T02:20:40.615Z,99861
2018-05-03T02:25:42.224Z,99861
2018-05-03T02:30:44.530Z,99857
2018-05-03T02:35:46.082Z,99857
2018-05-03T02:40:48.364Z,99850
2018-05-03T02:45:50.627Z,99846
2018-05-03T02:50:52.171Z,99851
2018-05-03T02:55:53.879Z,99849
2018-05-03T03:17:42.888Z,99848
2018-05-03T03:23:09.064Z,99843
2018-05-03T03:28:35.083Z,99853
2018-05-03T03:33:55.067Z,99854
2018-05-03T03:39:15.895Z,99859
2018-05-03T04:00:21.255Z,99880
2018-05-03T04:05:22.794Z,99873
2018-05-03T04:10:24.295Z,99872
2018-05-03T04:15:25.833Z,99880
2018-05-03T04:21:02.206Z,99881
2018-05-03T04:26:03.754Z,99877
2018-05-03T04:31:05.296Z,99887
2018-05-03T04:36:06.818Z,99887
2018-05-03T04:41:09.587Z,99899
2018-05-03T04:46:11.127Z,99900
2018-05-03T04:51:12.685Z,99913
2018-05-03T04:56:14.220Z,99923
2018-05-03T05:01:16.517Z,99928
2018-05-03T05:06:18.812Z,99934
2018-05-03T05:11:20.347Z,99934
2018-05-03T05:16:21.872Z,99939
2018-05-03T05:21:23.396Z,99945
2018-05-03T05:26:25.688Z,99957
2018-05-03T05:31:27.977Z,99972
2018-05-03T05:36:30.219Z,99975
2018-05-03T05:41:31.763Z,99978
2018-05-03T05:46:33.311Z,99974
2018-05-03T05:51:34.811Z,99982
2018-05-03T05:56:36.297Z,100005
2018-05-03T06:01:37.857Z,100011
2018-05-03T06:06:39.432Z,100014
2018-05-03T06:11:40.964Z,100019
2018-05-03T06:16:42.515Z,100042
2018-05-03T06:21:44.062Z,100042
2018-05-03T06:26:46.328Z,100046
2018-05-03T06:31:48.040Z,100046
2018-05-03T06:36:49.621Z,100053
2018-05-03T06:41:51.156Z,100062
2018-05-03T06:46:53.398Z,100069
2018-05-03T06:51:54.916Z,100088
2018-05-03T06:56:57.207Z,100088
2018-05-03T07:01:58.696Z,100102
2018-05-03T07:07:00.200Z,100107
2018-05-03T07:12:01.804Z,100108
2018-05-03T07:17:04.292Z,100114
2018-05-03T07:22:06.634Z,100124
2018-05-03T07:27:08.163Z,100114
2018-05-03T07:32:09.688Z,100122
2018-05-03T07:37:11.241Z,100123
2018-05-03T07:42:12.784Z,100121
2018-05-03T07:47:14.296Z,100136
2018-05-03T07:52:15.828Z,100144
2018-05-03T07:57:17.623Z,100152
2018-05-03T08:02:19.343Z,100138
2018-05-03T08:07:20.896Z,100128
2018-05-03T08:12:23.189Z,100142
2018-05-03T08:17:24.736Z,100145
2018-05-03T08:22:26.447Z,100140
2018-05-03T08:27:27.964Z,100149
2018-05-03T08:32:29.467Z,100149
2018-05-03T08:37:30.997Z,100160
2018-05-03T08:42:32.524Z,100162
2018-05-03T08:47:34.043Z,100157
2018-05-03T08:52:35.550Z,100164
2018-05-03T08:57:37.115Z,100170
2018-05-03T09:02:38.642Z,100169
2018-05-03T09:07:47.178Z,100176
2018-05-03T09:12:48.869Z,100181
2018-05-03T09:17:51.173Z,100180
2018-05-03T09:22:52.679Z,100181
2018-05-03T09:27:54.203Z,100186
2018-05-03T09:32:55.766Z,100184
2018-05-03T09:37:57.290Z,100174
2018-05-03T09:42:58.806Z,100177
2018-05-03T09:48:00.313Z,100180
2018-05-03T09:53:08.927Z,100177
2018-05-03T09:58:10.480Z,100178
2018-05-03T10:03:11.999Z,100182
2018-05-03T10:08:13.516Z,100168
2018-05-03T10:13:16.014Z,100163
2018-05-03T10:18:17.680Z,100176
2018-05-03T10:23:19.219Z,100178
2018-05-03T10:28:21.471Z,100180
2018-05-03T10:33:23.008Z,100188
2018-05-03T10:38:24.505Z,100180
2018-05-03T10:43:26.042Z,100174
2018-05-03T10:48:27.543Z,100183
2018-05-03T10:53:29.080Z,100178
2018-05-03T10:58:30.643Z,100188
2018-05-03T11:03:32.226Z,100191
2018-05-03T11:08:33.750Z,100194
2018-05-03T11:13:36.040Z,100187
2018-05-03T11:18:37.707Z,100177
2018-05-03T11:23:40.024Z,100183
2018-05-03T11:28:41.675Z,100180
2018-05-03T11:33:43.222Z,100182
2018-05-03T11:38:45.742Z,100178
2018-05-03T11:43:47.383Z,100175
2018-05-03T11:48:49.723Z,100179
2018-05-03T11:53:51.235Z,100180
2018-05-03T11:58:53.526Z,100166
2018-05-03T12:03:55.822Z,100178
2018-05-03T12:08:57.395Z,100171
2018-05-03T12:13:58.916Z,100177
2018-05-03T12:19:00.479Z,100174
2018-05-03T12:24:02.318Z,100165
2018-05-03T12:29:03.876Z,100173
2018-05-03T12:34:05.650Z,100172
2018-05-03T12:39:07.325Z,100176
2018-05-03T12:44:08.856Z,100177
2018-05-03T12:49:10.554Z,100164
2018-05-03T12:54:12.314Z,100157
2018-05-03T12:59:14.696Z,100155
2018-05-03T13:04:17.007Z,100161
2018-05-03T13:09:18.577Z,100162
2018-05-03T13:14:20.132Z,100158
2018-05-03T13:19:22.501Z,100165
2018-05-03T13:24:24.060Z,100151
2018-05-03T13:29:25.594Z,100153
2018-05-03T13:34:27.209Z,100143
2018-05-03T13:39:28.662Z,100159
2018-05-03T13:44:30.244Z,100152
2018-05-03T13:49:32.542Z,100149
2018-05-03T13:54:34.932Z,100140
2018-05-03T13:59:37.271Z,100155
2018-05-03T14:04:38.833Z,100147
2018-05-03T14:09:40.377Z,100140
2018-05-03T14:14:41.958Z,100128
2018-05-03T14:19:43.507Z,100140
2018-05-03T14:24:45.140Z,100136
2018-05-03T14:29:46.657Z,100140
2018-05-03T14:34:48.209Z,100143
2018-05-03T14:39:49.727Z,100147
2018-05-03T14:44:51.260Z,100146
2018-05-03T14:49:52.768Z,100142
2018-05-03T14:54:54.317Z,100151
2018-05-03T14:59:55.870Z,100154
2018-05-03T15:04:57.448Z,100156
2018-05-03T15:09:58.955Z,100164
2018-05-03T15:15:01.455Z,100166
2018-05-03T15:20:03.729Z,100166
2018-05-03T15:25:05.287Z,100160
2018-05-03T15:30:07.522Z,100167
2018-05-03T15:35:09.127Z,100155
2018-05-03T15:40:10.735Z,100165
2018-05-03T15:45:13.219Z,100172
2018-05-03T15:50:15.512Z,100176
2018-05-03T15:55:17.751Z,100179
2018-05-03T16:00:19.280Z,100184
2018-05-03T16:05:20.795Z,100197
2018-05-03T16:10:22.339Z,100186
2018-05-03T16:15:23.854Z,100182
2018-05-03T16:20:26.241Z,100183
2018-05-03T16:25:27.711Z,100191
2018-05-03T16:30:29.972Z,100182
2018-05-03T16:35:31.517Z,100194
2018-05-03T16:40:33.048Z,100203
2018-05-03T16:45:34.759Z,100193
2018-05-03T16:50:36.477Z,100191
2018-05-03T16:55:38.763Z,100193
2018-05-03T17:00:41.163Z,100194
2018-05-03T17:05:42.734Z,100191
2018-05-03T17:10:44.260Z,100187
2018-05-03T17:15:45.772Z,100196
2018-05-03T17:20:47.376Z,100198
2018-05-03T17:25:49.109Z,100200
2018-05-03T17:30:50.616Z,100211
2018-05-03T17:35:52.140Z,100204
2018-05-03T17:40:53.698Z,100193
2018-05-03T17:45:56.101Z,100207
2018-05-03T17:50:57.648Z,100206
2018-05-03T17:56:00.148Z,100220
2018-05-03T18:01:02.563Z,100230
2018-05-03T18:06:04.104Z,100236
2018-05-03T18:11:06.456Z,100245
2018-05-03T18:16:08.050Z,100266
2018-05-03T18:21:09.640Z,100264
2018-05-03T18:26:18.247Z,100278
2018-05-03T18:31:19.909Z,100278
2018-05-03T18:36:21.492Z,100285
2018-05-03T18:41:23.907Z,100292
2018-05-03T18:46:26.564Z,100295
2018-05-03T18:51:28.266Z,100305
2018-05-03T18:56:29.806Z,100305
2018-05-03T19:01:31.453Z,100312
2018-05-03T19:06:33.074Z,100316
2018-05-03T19:11:34.734Z,100318
2018-05-03T19:16:36.241Z,100334
2018-05-03T19:21:37.968Z,100339
2018-05-03T19:26:40.324Z,100355
2018-05-03T19:31:42.037Z,100352
2018-05-03T19:36:43.581Z,100367
2018-05-03T19:41:45.280Z,100368
2018-05-03T19:46:46.853Z,100374
2018-05-03T19:51:48.400Z,100373
2018-05-03T19:56:50.766Z,100385
2018-05-03T20:01:52.299Z,100400
2018-05-03T20:06:53.871Z,100407
2018-05-03T20:11:55.425Z,100411
2018-05-03T20:16:57.016Z,100422
2018-05-03T20:21:58.607Z,100426
2018-05-03T20:27:00.141Z,100433
2018-05-03T20:32:01.727Z,100434
2018-05-03T20:37:03.302Z,100440
2018-05-03T20:42:04.886Z,100435
2018-05-03T20:47:06.449Z,100431
2018-05-03T20:52:08.102Z,100443
2018-05-03T20:57:09.671Z,100440
2018-05-03T21:02:11.273Z,100440
2018-05-03T21:07:13.818Z,100448
2018-05-03T21:12:15.411Z,100457
2018-05-03T21:17:16.935Z,100456
2018-05-03T21:22:18.468Z,100448
2018-05-03T21:27:20.287Z,100460
2018-05-03T21:32:21.854Z,100451
2018-05-03T21:37:23.434Z,100451
2018-05-03T21:42:24.940Z,100455
2018-05-03T21:47:26.479Z,100452
2018-05-03T21:52:28.074Z,100461
2018-05-03T21:57:29.629Z,100461
2018-05-03T22:02:31.166Z,100460
2018-05-03T22:07:32.877Z,100462
2018-05-03T22:12:34.398Z,100461
2018-05-03T22:17:35.960Z,100460
2018-05-03T22:22:37.614Z,100455
2018-05-03T22:27:39.907Z,100452
2018-05-03T22:32:41.442Z,100453
2018-05-03T22:37:42.991Z,100465
2018-05-03T22:42:44.629Z,100461
2018-05-03T22:47:46.175Z,100464
2018-05-03T22:52:48.437Z,100457
2018-05-03T22:57:50.059Z,100459
2018-05-03T23:02:51.595Z,100461
2018-05-03T23:07:53.891Z,100457
2018-05-03T23:12:55.439Z,100440
2018-05-03T23:17:57.703Z,100453
2018-05-03T23:22:59.251Z,100447
2018-05-03T23:28:00.791Z,100456
2018-05-03T23:33:02.312Z,100464
2018-05-03T23:38:04.595Z,100456
2018-05-03T23:43:06.166Z,100453
2018-05-03T23:48:07.668Z,100462
2018-05-03T23:53:09.311Z,100465
2018-05-03T23:58:10.839Z,100470
